KLCK

Rickenbacker International Airport

Columbus, Ohio, USA
METAR KLCK 211535Z AUTO 00000KT 10SM CLR M17/M23 A3060 RMK AO2 T11691228
Observed Flight Rules
Jan-21 @ 15:35 UTC (22 minutes ago) Visual Flight Rules
Visibility Clouds
10 miles
  • Clear skies
Temperatures Readings
Current -17°C / 1°F
Dewpoint -23°C / -9°F
Humidity 60%
Altimeter 30.6" Hg
Pressure 1036.21 hPa
Elevation 227
METAR KLCK 211535Z AUTO 00000KT 10SM CLR M17/M23 A3060 RMK AO2 T11691228
Observed Flight Rules
Jan-21 @ 15:35 UTC
(22 minutes ago)
VFR
Clouds
  • Clear skies
Temperature Dewpoint
-17°C / 1°F -23°C / -9°F
Humidity Altimeter Pressure
60% 30.6" Hg 1036.21 hPa